Kure — D5MA7 — position and weather

sailwx.info

Track history (hours):
 
Tides and Currents Weather Stations Pressure Air Temp Water Temp Dewpoint Dewpoint Depression Visibility Wind Speed Wind Dir Waves Ship Positions

Kure

Last reported at 2018-May-08 06:37 UTC. Time now 2018-May-25 09:15 UTC.
Position N 41°39' E 141°43'.
Warning: this ship's position is 17 days out of date.

Length 318 m; draft 13.8 m.

Type: Cargo ship. MMSI: 636017643.

Date/timePositionNaut miles runAvg speedWind from/ knotsBaromVisibWave heightAir tempDewpointWater temp
2018-May-08 06:37N 41°39' E 141°43'319.6
2018-May-08 06:28N 41°40' E 141°39'920.2
2018-May-08 06:00N 41°39' E 141°26'1019.3
2018-May-08 05:30N 41°37' E 141°14'1020.3
2018-May-08 05:01N 41°38' E 141°00'1019.6
2018-May-08 04:31N 41°35' E 140°48'1020.9
2018-May-08 04:01N 41°29' E 140°36'1020.4
2018-May-08 03:30N 41°23' E 140°25'1019.8
2018-May-08 03:01N 41°18' E 140°14'  
2018-May-05 21:33N 34°45' E 128°52'514.8
2018-May-05 21:12N 34°40' E 128°51'3419.8
2018-May-05 19:29N 34°20' E 128°18'1119.7
2018-May-05 18:55N 34°13' E 128°07'38817.3
2018-May-04 20:32N 35°59' E 120°31'118.1
2018-May-04 20:29N 35°59' E 120°30'1014.8
2018-May-04 19:49N 36°01' E 120°18'410.5
2018-May-04 19:27N 36°01' E 120°14'1 1.0
2018-May-04 18:46N 36°01' E 120°13'0 0.0
2018-May-04 18:27N 36°01' E 120°13'0 0.0
2018-May-04 11:20N 36°01' E 120°13'0 0.0
2018-May-04 10:46N 36°01' E 120°13'0 0.0
2018-May-04 10:10N 36°01' E 120°13'0 0.0
2018-May-04 09:51N 36°01' E 120°13'0 0.0
2018-May-04 09:20N 36°01' E 120°13'0 0.0
2018-May-04 08:43N 36°01' E 120°13'0 0.0
2018-May-04 08:30N 36°01' E 120°13'0 0.0
2018-May-04 07:58N 36°01' E 120°13'0 0.1
2018-May-04 04:28N 36°01' E 120°13'4 7.3
2018-May-04 03:59N 36°02' E 120°17'5 9.9
2018-May-04 03:28N 36°01' E 120°24'4 8.3
2018-May-04 03:00N 36°00' E 120°28'3 6.7
2018-May-04 02:30N 35°60' E 120°32'  
2018-Apr-28 23:16N 24°31' E 119°07'413.4
2018-Apr-28 22:57N 24°29' E 119°03'613.6
2018-Apr-28 22:30N 24°25' E 118°58'813.4
2018-Apr-28 21:54N 24°20' E 118°51'613.3
2018-Apr-28 21:28N 24°19' E 118°44'713.9
2018-Apr-28 20:59N 24°17' E 118°37'713.7
2018-Apr-28 20:30N 24°15' E 118°30'713.4
2018-Apr-28 20:00N 24°12' E 118°24'611.4
2018-Apr-28 19:30N 24°13' E 118°17'714.1
2018-Apr-28 19:01N 24°18' E 118°13'713.8
2018-Apr-28 18:30N 24°23' E 118°07'611.9
2018-Apr-28 18:00N 24°26' E 118°02'3 6.4
2018-Apr-28 17:29N 24°27' E 117°58'0 0.0
2018-Apr-28 16:59N 24°27' E 117°58'0 0.0
2018-Apr-28 16:26N 24°27' E 117°58'0 0.0
2018-Apr-28 15:59N 24°27' E 117°58'0 0.1
2018-Apr-28 15:29N 24°27' E 117°58'0 0.0
2018-Apr-28 14:59N 24°27' E 117°58'0 0.0
2018-Apr-28 14:29N 24°27' E 117°58'0 0.0
2018-Apr-28 13:59N 24°27' E 117°58'0 0.1
2018-Apr-28 13:29N 24°27' E 117°58'0 0.1
2018-Apr-28 12:59N 24°27' E 117°58'0 0.1
2018-Apr-28 12:29N 24°27' E 117°58'0 0.1
2018-Apr-28 11:59N 24°27' E 117°58'0 0.0
2018-Apr-28 11:29N 24°27' E 117°58'0 0.1
2018-Apr-28 10:59N 24°27' E 117°58'0 0.2
2018-Apr-28 10:30N 24°27' E 117°58'2 4.6
2018-Apr-28 10:00N 24°27' E 118°00'611.0
2018-Apr-28 09:30N 24°24' E 118°06'4 7.8
2018-Apr-28 09:00N 24°21' E 118°09'4 8.2
2018-Apr-28 08:30N 24°19' E 118°12'4 8.5
2018-Apr-28 08:00N 24°15' E 118°15'5 9.9
2018-Apr-28 07:31N 24°12' E 118°19'714.8
2018-Apr-28 07:00N 24°04' E 118°19'  
Track history (hours):
 
Tides and Currents Weather Stations Pressure Air Temp Water Temp Dewpoint Dewpoint Depression Visibility Wind Speed Wind Dir Waves Ship Positions

Kure

Last reported at 2018-May-08 06:37 UTC. Time now 2018-May-25 09:15 UTC.
Position N 41°39' E 141°43'.
Warning: this ship's position is 17 days out of date.

Length 318 m; draft 13.8 m.

Type: Cargo ship. MMSI: 636017643.

Date/timePositionNaut miles runAvg speedWind from/ knotsBaromVisibWave heightAir tempDewpointWater temp
2018-May-08 06:37N 41°39' E 141°43'319.6
2018-May-08 06:28N 41°40' E 141°39'920.2
2018-May-08 06:00N 41°39' E 141°26'1019.3
2018-May-08 05:30N 41°37' E 141°14'1020.3
2018-May-08 05:01N 41°38' E 141°00'1019.6
2018-May-08 04:31N 41°35' E 140°48'1020.9
2018-May-08 04:01N 41°29' E 140°36'1020.4
2018-May-08 03:30N 41°23' E 140°25'1019.8
2018-May-08 03:01N 41°18' E 140°14'  
2018-May-05 21:33N 34°45' E 128°52'514.8
2018-May-05 21:12N 34°40' E 128°51'3419.8
2018-May-05 19:29N 34°20' E 128°18'1119.7
2018-May-05 18:55N 34°13' E 128°07'38817.3
2018-May-04 20:32N 35°59' E 120°31'118.1
2018-May-04 20:29N 35°59' E 120°30'1014.8
2018-May-04 19:49N 36°01' E 120°18'410.5
2018-May-04 19:27N 36°01' E 120°14'1 1.0
2018-May-04 18:46N 36°01' E 120°13'0 0.0
2018-May-04 18:27N 36°01' E 120°13'0 0.0
2018-May-04 11:20N 36°01' E 120°13'0 0.0
2018-May-04 10:46N 36°01' E 120°13'0 0.0
2018-May-04 10:10N 36°01' E 120°13'0 0.0
2018-May-04 09:51N 36°01' E 120°13'0 0.0
2018-May-04 09:20N 36°01' E 120°13'0 0.0
2018-May-04 08:43N 36°01' E 120°13'0 0.0
2018-May-04 08:30N 36°01' E 120°13'0 0.0
2018-May-04 07:58N 36°01' E 120°13'0 0.1
2018-May-04 04:28N 36°01' E 120°13'4 7.3
2018-May-04 03:59N 36°02' E 120°17'5 9.9
2018-May-04 03:28N 36°01' E 120°24'4 8.3
2018-May-04 03:00N 36°00' E 120°28'3 6.7
2018-May-04 02:30N 35°60' E 120°32'  
2018-Apr-28 23:16N 24°31' E 119°07'413.4
2018-Apr-28 22:57N 24°29' E 119°03'613.6
2018-Apr-28 22:30N 24°25' E 118°58'813.4
2018-Apr-28 21:54N 24°20' E 118°51'613.3
2018-Apr-28 21:28N 24°19' E 118°44'713.9
2018-Apr-28 20:59N 24°17' E 118°37'713.7
2018-Apr-28 20:30N 24°15' E 118°30'713.4
2018-Apr-28 20:00N 24°12' E 118°24'611.4
2018-Apr-28 19:30N 24°13' E 118°17'714.1
2018-Apr-28 19:01N 24°18' E 118°13'713.8
2018-Apr-28 18:30N 24°23' E 118°07'611.9
2018-Apr-28 18:00N 24°26' E 118°02'3 6.4
2018-Apr-28 17:29N 24°27' E 117°58'0 0.0
2018-Apr-28 16:59N 24°27' E 117°58'0 0.0
2018-Apr-28 16:26N 24°27' E 117°58'0 0.0
2018-Apr-28 15:59N 24°27' E 117°58'0 0.1
2018-Apr-28 15:29N 24°27' E 117°58'0 0.0
2018-Apr-28 14:59N 24°27' E 117°58'0 0.0
2018-Apr-28 14:29N 24°27' E 117°58'0 0.0
2018-Apr-28 13:59N 24°27' E 117°58'0 0.1
2018-Apr-28 13:29N 24°27' E 117°58'0 0.1
2018-Apr-28 12:59N 24°27' E 117°58'0 0.1
2018-Apr-28 12:29N 24°27' E 117°58'0 0.1
2018-Apr-28 11:59N 24°27' E 117°58'0 0.0
2018-Apr-28 11:29N 24°27' E 117°58'0 0.1
2018-Apr-28 10:59N 24°27' E 117°58'0 0.2
2018-Apr-28 10:30N 24°27' E 117°58'2 4.6
2018-Apr-28 10:00N 24°27' E 118°00'611.0
2018-Apr-28 09:30N 24°24' E 118°06'4 7.8
2018-Apr-28 09:00N 24°21' E 118°09'4 8.2
2018-Apr-28 08:30N 24°19' E 118°12'4 8.5
2018-Apr-28 08:00N 24°15' E 118°15'5 9.9
2018-Apr-28 07:31N 24°12' E 118°19'714.8
2018-Apr-28 07:00N 24°04' E 118°19'  

Dump ship's entire track history